sensor_id;sensor_type;location;lat;lon;timestamp;temperature;humidity
23591;DHT22;11973;52.098;7.582;2023-12-04T00:00:16;0.60;99.90
23591;DHT22;11973;52.098;7.582;2023-12-04T00:02:42;0.40;99.90
23591;DHT22;11973;52.098;7.582;2023-12-04T00:05:08;0.40;99.90
23591;DHT22;11973;52.098;7.582;2023-12-04T00:07:33;0.50;99.90
23591;DHT22;11973;52.098;7.582;2023-12-04T00:09:59;0.60;99.90
23591;DHT22;11973;52.098;7.582;2023-12-04T00:12:25;0.40;99.90
23591;DHT22;11973;52.098;7.582;2023-12-04T00:14:51;0.40;99.90
23591;DHT22;11973;52.098;7.582;2023-12-04T00:17:17;0.40;99.90
23591;DHT22;11973;52.098;7.582;2023-12-04T00:19:43;0.40;99.90
23591;DHT22;11973;52.098;7.582;2023-12-04T00:22:09;0.40;99.90
23591;DHT22;11973;52.098;7.582;2023-12-04T00:24:35;0.40;99.90
23591;DHT22;11973;52.098;7.582;2023-12-04T00:27:01;0.40;99.90
23591;DHT22;11973;52.098;7.582;2023-12-04T00:29:26;0.40;99.90
23591;DHT22;11973;52.098;7.582;2023-12-04T05:15:32;0.30;99.90
23591;DHT22;11973;52.098;7.582;2023-12-04T05:17:59;0.30;99.90
23591;DHT22;11973;52.098;7.582;2023-12-04T05:20:25;0.30;99.90
23591;DHT22;11973;52.098;7.582;2023-12-04T05:22:52;0.20;99.90
23591;DHT22;11973;52.098;7.582;2023-12-04T05:25:18;0.50;99.90
23591;DHT22;11973;52.098;7.582;2023-12-04T05:27:44;0.50;99.90
23591;DHT22;11973;52.098;7.582;2023-12-04T05:30:11;0.40;99.90
23591;DHT22;11973;52.098;7.582;2023-12-04T05:32:37;0.40;99.90
23591;DHT22;11973;52.098;7.582;2023-12-04T05:35:03;0.40;99.90
23591;DHT22;11973;52.098;7.582;2023-12-04T05:37:28;0.40;99.90
23591;DHT22;11973;52.098;7.582;2023-12-04T05:39:54;0.40;99.90
23591;DHT22;11973;52.098;7.582;2023-12-04T05:42:20;0.40;99.90
23591;DHT22;11973;52.098;7.582;2023-12-04T05:44:46;0.40;99.90
23591;DHT22;11973;52.098;7.582;2023-12-04T05:47:12;0.60;99.90
23591;DHT22;11973;52.098;7.582;2023-12-04T05:49:37;0.40;99.90
23591;DHT22;11973;52.098;7.582;2023-12-04T05:52:03;0.60;99.90
23591;DHT22;11973;52.098;7.582;2023-12-04T05:54:29;0.50;99.90
23591;DHT22;11973;52.098;7.582;2023-12-04T05:56:57;0.50;99.90
23591;DHT22;11973;52.098;7.582;2023-12-04T05:59:24;0.50;99.90
23591;DHT22;11973;52.098;7.582;2023-12-04T06:01:49;0.60;99.90
23591;DHT22;11973;52.098;7.582;2023-12-04T06:04:15;0.50;99.90
23591;DHT22;11973;52.098;7.582;2023-12-04T06:06:41;0.50;99.90
23591;DHT22;11973;52.098;7.582;2023-12-04T06:09:07;0.60;99.90
23591;DHT22;11973;52.098;7.582;2023-12-04T06:11:32;0.50;99.90
23591;DHT22;11973;52.098;7.582;2023-12-04T06:13:58;0.50;99.90
23591;DHT22;11973;52.098;7.582;2023-12-04T06:16:24;0.60;99.90
23591;DHT22;11973;52.098;7.582;2023-12-04T06:18:50;0.50;99.90
23591;DHT22;11973;52.098;7.582;2023-12-04T06:21:15;0.50;99.90
23591;DHT22;11973;52.098;7.582;2023-12-04T06:23:41;0.50;99.90
23591;DHT22;11973;52.098;7.582;2023-12-04T06:26:08;0.50;99.90
23591;DHT22;11973;52.098;7.582;2023-12-04T06:28:34;0.50;99.90
23591;DHT22;11973;52.098;7.582;2023-12-04T06:31:00;0.50;99.90
23591;DHT22;11973;52.098;7.582;2023-12-04T06:33:26;0.50;99.90
23591;DHT22;11973;52.098;7.582;2023-12-04T06:35:52;0.50;99.90
23591;DHT22;11973;52.098;7.582;2023-12-04T06:38:19;0.50;99.90
23591;DHT22;11973;52.098;7.582;2023-12-04T06:40:46;0.50;99.90
23591;DHT22;11973;52.098;7.582;2023-12-04T06:43:12;0.50;99.90
23591;DHT22;11973;52.098;7.582;2023-12-04T06:45:38;0.50;99.90
23591;DHT22;11973;52.098;7.582;2023-12-04T06:48:04;0.40;99.90
23591;DHT22;11973;52.098;7.582;2023-12-04T06:50:30;0.40;99.90
23591;DHT22;11973;52.098;7.582;2023-12-04T06:52:56;0.50;99.90
23591;DHT22;11973;52.098;7.582;2023-12-04T06:55:23;0.40;99.90
23591;DHT22;11973;52.098;7.582;2023-12-04T06:57:49;0.50;99.90
23591;DHT22;11973;52.098;7.582;2023-12-04T07:00:15;0.40;99.90
23591;DHT22;11973;52.098;7.582;2023-12-04T07:02:42;0.40;99.90
23591;DHT22;11973;52.098;7.582;2023-12-04T07:05:07;0.50;99.90
23591;DHT22;11973;52.098;7.582;2023-12-04T07:07:34;0.40;99.90
23591;DHT22;11973;52.098;7.582;2023-12-04T07:09:59;0.40;99.90
23591;DHT22;11973;52.098;7.582;2023-12-04T07:12:25;0.30;99.90
23591;DHT22;11973;52.098;7.582;2023-12-04T07:14:51;0.30;99.90
23591;DHT22;11973;52.098;7.582;2023-12-04T07:17:17;0.30;99.90
23591;DHT22;11973;52.098;7.582;2023-12-04T07:19:42;0.40;99.90
23591;DHT22;11973;52.098;7.582;2023-12-04T07:22:08;0.50;99.90
23591;DHT22;11973;52.098;7.582;2023-12-04T07:24:34;0.30;99.90
23591;DHT22;11973;52.098;7.582;2023-12-04T07:27:00;0.30;99.90
23591;DHT22;11973;52.098;7.582;2023-12-04T07:29:27;0.40;99.90
23591;DHT22;11973;52.098;7.582;2023-12-04T07:31:54;0.30;99.90
23591;DHT22;11973;52.098;7.582;2023-12-04T07:34:20;0.30;99.90
23591;DHT22;11973;52.098;7.582;2023-12-04T07:36:46;0.30;99.90
23591;DHT22;11973;52.098;7.582;2023-12-04T07:39:12;0.30;99.90
23591;DHT22;11973;52.098;7.582;2023-12-04T07:41:37;0.40;99.90
23591;DHT22;11973;52.098;7.582;2023-12-04T07:44:03;0.40;99.90
23591;DHT22;11973;52.098;7.582;2023-12-04T07:46:29;0.40;99.90
23591;DHT22;11973;52.098;7.582;2023-12-04T07:48:55;0.40;99.90
23591;DHT22;11973;52.098;7.582;2023-12-04T07:51:21;0.40;99.90
23591;DHT22;11973;52.098;7.582;2023-12-04T07:53:47;0.40;99.90
23591;DHT22;11973;52.098;7.582;2023-12-04T07:56:13;0.40;99.90
23591;DHT22;11973;52.098;7.582;2023-12-04T07:58:39;0.40;99.90
23591;DHT22;11973;52.098;7.582;2023-12-04T08:01:05;0.50;99.90
23591;DHT22;11973;52.098;7.582;2023-12-04T08:03:31;0.50;99.90
23591;DHT22;11973;52.098;7.582;2023-12-04T08:05:57;0.50;99.90
23591;DHT22;11973;52.098;7.582;2023-12-04T08:08:24;0.50;99.90
23591;DHT22;11973;52.098;7.582;2023-12-04T08:10:50;0.50;99.90
23591;DHT22;11973;52.098;7.582;2023-12-04T08:13:16;0.60;99.90
23591;DHT22;11973;52.098;7.582;2023-12-04T08:15:46;0.60;99.90
23591;DHT22;11973;52.098;7.582;2023-12-04T08:18:11;0.60;99.90
23591;DHT22;11973;52.098;7.582;2023-12-04T08:20:37;0.60;99.90
23591;DHT22;11973;52.098;7.582;2023-12-04T08:23:03;0.70;99.90
23591;DHT22;11973;52.098;7.582;2023-12-04T08:25:29;0.70;99.90
23591;DHT22;11973;52.098;7.582;2023-12-04T08:27:55;0.70;99.90
23591;DHT22;11973;52.098;7.582;2023-12-04T08:30:21;0.70;99.90
23591;DHT22;11973;52.098;7.582;2023-12-04T08:32:47;0.90;99.90
23591;DHT22;11973;52.098;7.582;2023-12-04T08:35:12;0.70;99.90
23591;DHT22;11973;52.098;7.582;2023-12-04T08:37:38;0.80;99.90
23591;DHT22;11973;52.098;7.582;2023-12-04T08:40:06;0.80;99.90
23591;DHT22;11973;52.098;7.582;2023-12-04T08:42:33;0.80;99.90
23591;DHT22;11973;52.098;7.582;2023-12-04T08:44:59;0.80;99.90
23591;DHT22;11973;52.098;7.582;2023-12-04T08:47:25;0.90;99.90
23591;DHT22;11973;52.098;7.582;2023-12-04T08:49:51;0.90;99.90
23591;DHT22;11973;52.098;7.582;2023-12-04T08:52:17;1.00;99.90
23591;DHT22;11973;52.098;7.582;2023-12-04T08:54:42;0.90;99.90
23591;DHT22;11973;52.098;7.582;2023-12-04T08:57:08;0.90;99.90
23591;DHT22;11973;52.098;7.582;2023-12-04T08:59:35;1.00;99.90
23591;DHT22;11973;52.098;7.582;2023-12-04T09:02:00;1.00;99.90
23591;DHT22;11973;52.098;7.582;2023-12-04T09:04:30;1.10;99.90
23591;DHT22;11973;52.098;7.582;2023-12-04T09:06:57;1.10;99.90
23591;DHT22;11973;52.098;7.582;2023-12-04T09:09:24;1.10;99.90
23591;DHT22;11973;52.098;7.582;2023-12-04T09:11:49;1.20;99.90
23591;DHT22;11973;52.098;7.582;2023-12-04T09:14:15;1.20;99.90
23591;DHT22;11973;52.098;7.582;2023-12-04T09:16:42;1.20;99.90
23591;DHT22;11973;52.098;7.582;2023-12-04T09:19:08;1.40;99.90
23591;DHT22;11973;52.098;7.582;2023-12-04T09:21:35;1.30;99.90
23591;DHT22;11973;52.098;7.582;2023-12-04T09:24:01;1.40;99.90
23591;DHT22;11973;52.098;7.582;2023-12-04T09:26:27;1.30;99.90
23591;DHT22;11973;52.098;7.582;2023-12-04T09:28:53;1.50;99.90
23591;DHT22;11973;52.098;7.582;2023-12-04T09:31:19;1.40;99.90
23591;DHT22;11973;52.098;7.582;2023-12-04T09:33:45;1.40;99.90
23591;DHT22;11973;52.098;7.582;2023-12-04T09:36:12;1.40;99.90
23591;DHT22;11973;52.098;7.582;2023-12-04T09:38:38;1.60;99.90
23591;DHT22;11973;52.098;7.582;2023-12-04T09:41:06;1.60;99.90
23591;DHT22;11973;52.098;7.582;2023-12-04T09:43:34;1.60;99.90
23591;DHT22;11973;52.098;7.582;2023-12-04T09:46:01;1.60;99.90
23591;DHT22;11973;52.098;7.582;2023-12-04T09:48:27;1.60;99.90
23591;DHT22;11973;52.098;7.582;2023-12-04T09:50:53;1.70;99.90
23591;DHT22;11973;52.098;7.582;2023-12-04T09:53:24;1.70;99.90
23591;DHT22;11973;52.098;7.582;2023-12-04T09:55:52;1.70;99.90
23591;DHT22;11973;52.098;7.582;2023-12-04T09:58:19;1.70;99.90
23591;DHT22;11973;52.098;7.582;2023-12-04T10:00:46;1.70;99.90
23591;DHT22;11973;52.098;7.582;2023-12-04T10:03:14;1.70;99.90
23591;DHT22;11973;52.098;7.582;2023-12-04T10:05:44;1.80;99.90
23591;DHT22;11973;52.098;7.582;2023-12-04T10:08:10;1.80;99.90
23591;DHT22;11973;52.098;7.582;2023-12-04T10:10:35;1.90;99.90
23591;DHT22;11973;52.098;7.582;2023-12-04T10:13:01;1.80;99.90
23591;DHT22;11973;52.098;7.582;2023-12-04T10:15:28;1.80;99.90
23591;DHT22;11973;52.098;7.582;2023-12-04T10:17:54;1.80;99.90
23591;DHT22;11973;52.098;7.582;2023-12-04T10:20:20;2.00;99.90
23591;DHT22;11973;52.098;7.582;2023-12-04T10:22:58;1.90;99.90
23591;DHT22;11973;52.098;7.582;2023-12-04T10:25:26;1.90;99.90
23591;DHT22;11973;52.098;7.582;2023-12-04T10:27:54;2.00;99.90
23591;DHT22;11973;52.098;7.582;2023-12-04T10:30:28;1.90;99.90
23591;DHT22;11973;52.098;7.582;2023-12-04T10:32:59;2.10;99.90
23591;DHT22;11973;52.098;7.582;2023-12-04T10:35:29;2.00;99.90
23591;DHT22;11973;52.098;7.582;2023-12-04T10:37:58;2.00;99.90
23591;DHT22;11973;52.098;7.582;2023-12-04T10:40:29;2.00;99.90
23591;DHT22;11973;52.098;7.582;2023-12-04T10:45:35;2.00;99.90
23591;DHT22;11973;52.098;7.582;2023-12-04T10:48:02;2.00;99.90
23591;DHT22;11973;52.098;7.582;2023-12-04T10:50:34;2.00;99.90
23591;DHT22;11973;52.098;7.582;2023-12-04T10:53:02;2.10;99.90
23591;DHT22;11973;52.098;7.582;2023-12-04T10:55:31;2.10;99.90
23591;DHT22;11973;52.098;7.582;2023-12-04T10:57:58;2.10;99.90
23591;DHT22;11973;52.098;7.582;2023-12-04T11:00:25;2.10;99.90
23591;DHT22;11973;52.098;7.582;2023-12-04T11:02:55;2.20;99.90
23591;DHT22;11973;52.098;7.582;2023-12-04T11:05:23;2.10;99.90
23591;DHT22;11973;52.098;7.582;2023-12-04T11:07:56;2.20;99.90
23591;DHT22;11973;52.098;7.582;2023-12-04T11:10:26;2.30;99.90
23591;DHT22;11973;52.098;7.582;2023-12-04T11:13:15;2.20;99.90
23591;DHT22;11973;52.098;7.582;2023-12-04T11:15:45;2.20;99.90
23591;DHT22;11973;52.098;7.582;2023-12-04T11:18:14;2.30;99.90
23591;DHT22;11973;52.098;7.582;2023-12-04T11:20:51;2.30;99.90
23591;DHT22;11973;52.098;7.582;2023-12-04T11:23:18;2.30;99.90
23591;DHT22;11973;52.098;7.582;2023-12-04T11:25:44;2.30;99.90
23591;DHT22;11973;52.098;7.582;2023-12-04T11:28:12;2.40;99.90
23591;DHT22;11973;52.098;7.582;2023-12-04T11:30:38;2.60;99.90
23591;DHT22;11973;52.098;7.582;2023-12-04T11:33:05;2.50;99.90
23591;DHT22;11973;52.098;7.582;2023-12-04T11:35:30;2.50;99.90
23591;DHT22;11973;52.098;7.582;2023-12-04T11:37:58;2.70;99.90
23591;DHT22;11973;52.098;7.582;2023-12-04T11:40:24;2.60;99.90
23591;DHT22;11973;52.098;7.582;2023-12-04T11:42:52;2.70;99.90
23591;DHT22;11973;52.098;7.582;2023-12-04T11:45:19;2.70;99.90
23591;DHT22;11973;52.098;7.582;2023-12-04T11:47:55;2.80;99.90
23591;DHT22;11973;52.098;7.582;2023-12-04T11:50:23;2.80;99.90
23591;DHT22;11973;52.098;7.582;2023-12-04T11:52:50;2.90;99.90
23591;DHT22;11973;52.098;7.582;2023-12-04T11:55:18;2.90;99.90
23591;DHT22;11973;52.098;7.582;2023-12-04T11:57:45;3.00;99.90
23591;DHT22;11973;52.098;7.582;2023-12-04T12:00:20;3.00;99.90
23591;DHT22;11973;52.098;7.582;2023-12-04T12:05:23;3.10;99.90
23591;DHT22;11973;52.098;7.582;2023-12-04T12:07:49;3.10;99.90
23591;DHT22;11973;52.098;7.582;2023-12-04T12:10:16;3.10;99.90
23591;DHT22;11973;52.098;7.582;2023-12-04T12:12:45;3.00;99.90
23591;DHT22;11973;52.098;7.582;2023-12-04T12:15:11;3.00;99.90
23591;DHT22;11973;52.098;7.582;2023-12-04T12:17:38;3.00;99.90
23591;DHT22;11973;52.098;7.582;2023-12-04T12:20:09;3.10;99.90
23591;DHT22;11973;52.098;7.582;2023-12-04T12:22:36;3.10;99.90
23591;DHT22;11973;52.098;7.582;2023-12-04T12:25:07;3.10;99.90
23591;DHT22;11973;52.098;7.582;2023-12-04T12:27:33;3.10;99.90
23591;DHT22;11973;52.098;7.582;2023-12-04T12:30:00;3.20;99.90
23591;DHT22;11973;52.098;7.582;2023-12-04T12:32:29;3.10;99.90
23591;DHT22;11973;52.098;7.582;2023-12-04T12:34:54;3.10;99.90
23591;DHT22;11973;52.098;7.582;2023-12-04T12:37:21;3.20;99.90
23591;DHT22;11973;52.098;7.582;2023-12-04T12:39:46;3.20;99.90
23591;DHT22;11973;52.098;7.582;2023-12-04T12:42:25;3.20;99.90
23591;DHT22;11973;52.098;7.582;2023-12-04T12:44:52;3.20;99.90
23591;DHT22;11973;52.098;7.582;2023-12-04T12:47:19;3.40;99.90
23591;DHT22;11973;52.098;7.582;2023-12-04T12:49:45;3.20;99.90
23591;DHT22;11973;52.098;7.582;2023-12-04T12:52:11;3.30;99.90
23591;DHT22;11973;52.098;7.582;2023-12-04T12:54:41;3.20;99.90
23591;DHT22;11973;52.098;7.582;2023-12-04T12:57:07;3.30;99.90
23591;DHT22;11973;52.098;7.582;2023-12-04T12:59:34;3.30;99.90
23591;DHT22;11973;52.098;7.582;2023-12-04T13:02:00;3.30;99.90
23591;DHT22;11973;52.098;7.582;2023-12-04T13:04:33;3.20;99.90
23591;DHT22;11973;52.098;7.582;2023-12-04T13:06:59;3.20;99.90
23591;DHT22;11973;52.098;7.582;2023-12-04T13:09:25;3.20;99.90
23591;DHT22;11973;52.098;7.582;2023-12-04T13:11:51;3.20;99.90
23591;DHT22;11973;52.098;7.582;2023-12-04T13:14:17;3.40;99.90
23591;DHT22;11973;52.098;7.582;2023-12-04T13:16:43;3.30;99.90
23591;DHT22;11973;52.098;7.582;2023-12-04T13:19:09;3.40;99.90
23591;DHT22;11973;52.098;7.582;2023-12-04T13:21:34;3.30;99.90
23591;DHT22;11973;52.098;7.582;2023-12-04T13:24:00;3.30;99.90
23591;DHT22;11973;52.098;7.582;2023-12-04T13:26:26;3.30;99.90
23591;DHT22;11973;52.098;7.582;2023-12-04T13:28:52;3.30;99.90
23591;DHT22;11973;52.098;7.582;2023-12-04T13:31:18;3.20;99.90
23591;DHT22;11973;52.098;7.582;2023-12-04T13:33:46;3.20;99.90
23591;DHT22;11973;52.098;7.582;2023-12-04T13:36:12;3.20;99.90
23591;DHT22;11973;52.098;7.582;2023-12-04T13:38:38;3.10;99.90
23591;DHT22;11973;52.098;7.582;2023-12-04T13:41:04;3.10;99.90
23591;DHT22;11973;52.098;7.582;2023-12-04T13:43:49;3.00;99.90
23591;DHT22;11973;52.098;7.582;2023-12-04T13:46:17;3.00;99.90
23591;DHT22;11973;52.098;7.582;2023-12-04T13:48:43;3.00;99.90
23591;DHT22;11973;52.098;7.582;2023-12-04T13:51:10;2.90;99.90
23591;DHT22;11973;52.098;7.582;2023-12-04T13:53:36;2.90;99.90
23591;DHT22;11973;52.098;7.582;2023-12-04T13:56:08;2.80;99.90
23591;DHT22;11973;52.098;7.582;2023-12-04T13:58:54;2.70;99.90
23591;DHT22;11973;52.098;7.582;2023-12-04T14:01:24;2.70;99.90
23591;DHT22;11973;52.098;7.582;2023-12-04T14:03:52;2.70;99.90
23591;DHT22;11973;52.098;7.582;2023-12-04T14:06:19;2.60;99.90
23591;DHT22;11973;52.098;7.582;2023-12-04T14:08:44;2.60;99.90
23591;DHT22;11973;52.098;7.582;2023-12-04T14:11:11;2.60;99.90
23591;DHT22;11973;52.098;7.582;2023-12-04T14:13:40;2.60;99.90
23591;DHT22;11973;52.098;7.582;2023-12-04T14:16:06;2.60;99.90
23591;DHT22;11973;52.098;7.582;2023-12-04T14:18:33;2.60;99.90
23591;DHT22;11973;52.098;7.582;2023-12-04T14:20:59;2.50;99.90
23591;DHT22;11973;52.098;7.582;2023-12-04T14:23:25;2.60;99.90
23591;DHT22;11973;52.098;7.582;2023-12-04T14:25:52;2.60;99.90
23591;DHT22;11973;52.098;7.582;2023-12-04T14:28:18;2.50;99.90
23591;DHT22;11973;52.098;7.582;2023-12-04T14:30:43;2.50;99.90
23591;DHT22;11973;52.098;7.582;2023-12-04T14:33:11;2.50;99.90
23591;DHT22;11973;52.098;7.582;2023-12-04T14:35:36;2.50;99.90
23591;DHT22;11973;52.098;7.582;2023-12-04T14:38:03;2.40;99.90
23591;DHT22;11973;52.098;7.582;2023-12-04T14:40:30;2.40;99.90
23591;DHT22;11973;52.098;7.582;2023-12-04T14:42:56;2.40;99.90
23591;DHT22;11973;52.098;7.582;2023-12-04T14:45:22;2.30;99.90
23591;DHT22;11973;52.098;7.582;2023-12-04T14:47:48;2.40;99.90
23591;DHT22;11973;52.098;7.582;2023-12-04T14:50:16;2.30;99.90
23591;DHT22;11973;52.098;7.582;2023-12-04T14:52:42;2.20;99.90
23591;DHT22;11973;52.098;7.582;2023-12-04T14:55:15;2.20;99.90
23591;DHT22;11973;52.098;7.582;2023-12-04T14:57:51;2.20;99.90
23591;DHT22;11973;52.098;7.582;2023-12-04T15:00:37;2.10;99.90
23591;DHT22;11973;52.098;7.582;2023-12-04T15:03:22;2.10;99.90
23591;DHT22;11973;52.098;7.582;2023-12-04T15:05:47;2.10;99.90
23591;DHT22;11973;52.098;7.582;2023-12-04T15:08:22;2.10;99.90
23591;DHT22;11973;52.098;7.582;2023-12-04T15:11:10;2.00;99.90
23591;DHT22;11973;52.098;7.582;2023-12-04T15:13:48;2.00;99.90
23591;DHT22;11973;52.098;7.582;2023-12-04T15:16:46;2.00;99.90
23591;DHT22;11973;52.098;7.582;2023-12-04T15:19:16;1.90;99.90
23591;DHT22;11973;52.098;7.582;2023-12-04T15:22:03;1.90;99.90
23591;DHT22;11973;52.098;7.582;2023-12-04T15:24:30;1.90;99.90
23591;DHT22;11973;52.098;7.582;2023-12-04T15:26:56;1.80;99.90
23591;DHT22;11973;52.098;7.582;2023-12-04T15:29:21;1.80;99.90
23591;DHT22;11973;52.098;7.582;2023-12-04T15:31:48;1.70;99.90
23591;DHT22;11973;52.098;7.582;2023-12-04T15:34:14;1.70;99.90
23591;DHT22;11973;52.098;7.582;2023-12-04T15:36:39;1.70;99.90
23591;DHT22;11973;52.098;7.582;2023-12-04T15:39:05;1.70;99.90
23591;DHT22;11973;52.098;7.582;2023-12-04T15:41:31;1.70;99.90
23591;DHT22;11973;52.098;7.582;2023-12-04T15:43:57;1.80;99.90
23591;DHT22;11973;52.098;7.582;2023-12-04T15:46:23;1.60;99.90
23591;DHT22;11973;52.098;7.582;2023-12-04T15:48:52;1.60;99.90
23591;DHT22;11973;52.098;7.582;2023-12-04T15:51:18;1.60;99.90
23591;DHT22;11973;52.098;7.582;2023-12-04T15:53:44;1.60;99.90
23591;DHT22;11973;52.098;7.582;2023-12-04T15:56:11;1.60;99.90
23591;DHT22;11973;52.098;7.582;2023-12-04T15:58:36;1.60;99.90
23591;DHT22;11973;52.098;7.582;2023-12-04T16:01:02;1.60;99.90
23591;DHT22;11973;52.098;7.582;2023-12-04T16:03:30;1.60;99.90
23591;DHT22;11973;52.098;7.582;2023-12-04T16:05:56;1.50;99.90
23591;DHT22;11973;52.098;7.582;2023-12-04T16:08:22;1.50;99.90
23591;DHT22;11973;52.098;7.582;2023-12-04T16:10:48;1.60;99.90
23591;DHT22;11973;52.098;7.582;2023-12-04T16:13:14;1.60;99.90
23591;DHT22;11973;52.098;7.582;2023-12-04T16:15:42;1.50;99.90
23591;DHT22;11973;52.098;7.582;2023-12-04T16:18:12;1.60;99.90
23591;DHT22;11973;52.098;7.582;2023-12-04T16:20:38;1.50;99.90
23591;DHT22;11973;52.098;7.582;2023-12-04T16:23:04;1.50;99.90
23591;DHT22;11973;52.098;7.582;2023-12-04T16:25:30;1.50;99.90
23591;DHT22;11973;52.098;7.582;2023-12-04T16:27:55;1.50;99.90
23591;DHT22;11973;52.098;7.582;2023-12-04T16:30:24;1.50;99.90
23591;DHT22;11973;52.098;7.582;2023-12-04T16:32:50;1.40;99.90
23591;DHT22;11973;52.098;7.582;2023-12-04T16:35:21;1.40;99.90
23591;DHT22;11973;52.098;7.582;2023-12-04T16:37:47;1.40;99.90
23591;DHT22;11973;52.098;7.582;2023-12-04T16:40:13;1.40;99.90
23591;DHT22;11973;52.098;7.582;2023-12-04T16:42:41;1.40;99.90
23591;DHT22;11973;52.098;7.582;2023-12-04T16:45:08;1.40;99.90
23591;DHT22;11973;52.098;7.582;2023-12-04T16:47:34;1.40;99.90
23591;DHT22;11973;52.098;7.582;2023-12-04T16:50:00;1.50;99.90
23591;DHT22;11973;52.098;7.582;2023-12-04T16:52:26;1.40;99.90
23591;DHT22;11973;52.098;7.582;2023-12-04T16:54:54;1.50;99.90
23591;DHT22;11973;52.098;7.582;2023-12-04T16:57:19;1.40;99.90
23591;DHT22;11973;52.098;7.582;2023-12-04T16:59:46;1.40;99.90
23591;DHT22;11973;52.098;7.582;2023-12-04T17:02:12;1.40;99.90
23591;DHT22;11973;52.098;7.582;2023-12-04T17:04:38;1.40;99.90
23591;DHT22;11973;52.098;7.582;2023-12-04T17:07:04;1.40;99.90
23591;DHT22;11973;52.098;7.582;2023-12-04T17:09:30;1.40;99.90
23591;DHT22;11973;52.098;7.582;2023-12-04T17:11:57;1.40;99.90
23591;DHT22;11973;52.098;7.582;2023-12-04T17:14:23;1.60;99.90
23591;DHT22;11973;52.098;7.582;2023-12-04T17:16:48;1.40;99.90
23591;DHT22;11973;52.098;7.582;2023-12-04T17:19:14;1.40;99.90
23591;DHT22;11973;52.098;7.582;2023-12-04T17:21:40;1.50;99.90
23591;DHT22;11973;52.098;7.582;2023-12-04T17:24:06;1.50;99.90
23591;DHT22;11973;52.098;7.582;2023-12-04T17:26:33;1.50;99.90
23591;DHT22;11973;52.098;7.582;2023-12-04T17:28:58;1.50;99.90
23591;DHT22;11973;52.098;7.582;2023-12-04T17:31:24;1.40;99.90
23591;DHT22;11973;52.098;7.582;2023-12-04T17:33:50;1.50;99.90
23591;DHT22;11973;52.098;7.582;2023-12-04T17:36:16;1.50;99.90
23591;DHT22;11973;52.098;7.582;2023-12-04T17:38:42;1.50;99.90
23591;DHT22;11973;52.098;7.582;2023-12-04T17:41:12;1.40;99.90
23591;DHT22;11973;52.098;7.582;2023-12-04T17:43:40;1.60;99.90
23591;DHT22;11973;52.098;7.582;2023-12-04T17:46:06;1.50;99.90
23591;DHT22;11973;52.098;7.582;2023-12-04T17:48:32;1.50;99.90
23591;DHT22;11973;52.098;7.582;2023-12-04T17:50:58;1.50;99.90
23591;DHT22;11973;52.098;7.582;2023-12-04T17:53:23;1.50;99.90
23591;DHT22;11973;52.098;7.582;2023-12-04T17:55:49;1.50;99.90
23591;DHT22;11973;52.098;7.582;2023-12-04T17:58:15;1.50;99.90
23591;DHT22;11973;52.098;7.582;2023-12-04T18:00:43;1.50;99.90
23591;DHT22;11973;52.098;7.582;2023-12-04T18:03:08;1.50;99.90
23591;DHT22;11973;52.098;7.582;2023-12-04T18:05:34;1.60;99.90
23591;DHT22;11973;52.098;7.582;2023-12-04T18:08:00;1.50;99.90
23591;DHT22;11973;52.098;7.582;2023-12-04T18:10:28;1.70;99.90
23591;DHT22;11973;52.098;7.582;2023-12-04T18:12:54;1.60;99.90
23591;DHT22;11973;52.098;7.582;2023-12-04T18:15:20;1.50;99.90
23591;DHT22;11973;52.098;7.582;2023-12-04T18:17:46;1.50;99.90
23591;DHT22;11973;52.098;7.582;2023-12-04T18:20:13;1.60;99.90
23591;DHT22;11973;52.098;7.582;2023-12-04T18:22:40;1.50;99.90
23591;DHT22;11973;52.098;7.582;2023-12-04T18:25:07;1.50;99.90
23591;DHT22;11973;52.098;7.582;2023-12-04T18:27:33;1.50;99.90
23591;DHT22;11973;52.098;7.582;2023-12-04T18:30:00;1.50;99.90
23591;DHT22;11973;52.098;7.582;2023-12-04T18:32:26;1.40;99.90
23591;DHT22;11973;52.098;7.582;2023-12-04T18:34:52;1.40;99.90
23591;DHT22;11973;52.098;7.582;2023-12-04T18:37:32;1.40;99.90
23591;DHT22;11973;52.098;7.582;2023-12-04T18:40:02;1.40;99.90
23591;DHT22;11973;52.098;7.582;2023-12-04T18:42:34;1.40;99.90
23591;DHT22;11973;52.098;7.582;2023-12-04T18:45:00;1.40;99.90
23591;DHT22;11973;52.098;7.582;2023-12-04T18:47:27;1.40;99.90
23591;DHT22;11973;52.098;7.582;2023-12-04T18:49:56;1.30;99.90
23591;DHT22;11973;52.098;7.582;2023-12-04T18:52:23;1.30;99.90
23591;DHT22;11973;52.098;7.582;2023-12-04T18:54:48;1.30;99.90
23591;DHT22;11973;52.098;7.582;2023-12-04T18:57:14;1.40;99.90
23591;DHT22;11973;52.098;7.582;2023-12-04T18:59:41;1.40;99.90
23591;DHT22;11973;52.098;7.582;2023-12-04T19:02:07;1.40;99.90
23591;DHT22;11973;52.098;7.582;2023-12-04T19:04:32;1.30;99.90
23591;DHT22;11973;52.098;7.582;2023-12-04T19:07:03;1.30;99.90
23591;DHT22;11973;52.098;7.582;2023-12-04T19:09:29;1.30;99.90
23591;DHT22;11973;52.098;7.582;2023-12-04T19:11:55;1.20;99.90
23591;DHT22;11973;52.098;7.582;2023-12-04T19:14:21;1.20;99.90
23591;DHT22;11973;52.098;7.582;2023-12-04T19:16:47;1.40;99.90
23591;DHT22;11973;52.098;7.582;2023-12-04T19:19:12;1.30;99.90
23591;DHT22;11973;52.098;7.582;2023-12-04T19:21:39;1.20;99.90
23591;DHT22;11973;52.098;7.582;2023-12-04T19:24:04;1.20;99.90
23591;DHT22;11973;52.098;7.582;2023-12-04T19:26:30;1.20;99.90
23591;DHT22;11973;52.098;7.582;2023-12-04T19:28:56;1.20;99.90
23591;DHT22;11973;52.098;7.582;2023-12-04T19:31:22;1.20;99.90
23591;DHT22;11973;52.098;7.582;2023-12-04T19:33:48;1.20;99.90
23591;DHT22;11973;52.098;7.582;2023-12-04T19:36:17;1.20;99.90
23591;DHT22;11973;52.098;7.582;2023-12-04T19:38:43;1.30;99.90
23591;DHT22;11973;52.098;7.582;2023-12-04T19:41:09;1.40;99.90
23591;DHT22;11973;52.098;7.582;2023-12-04T19:43:37;1.20;99.90
23591;DHT22;11973;52.098;7.582;2023-12-04T19:46:03;1.20;99.90
23591;DHT22;11973;52.098;7.582;2023-12-04T19:48:29;1.20;99.90
23591;DHT22;11973;52.098;7.582;2023-12-04T19:50:55;1.20;99.90
23591;DHT22;11973;52.098;7.582;2023-12-04T19:53:21;1.20;99.90
23591;DHT22;11973;52.098;7.582;2023-12-04T19:55:48;1.20;99.90
23591;DHT22;11973;52.098;7.582;2023-12-04T19:58:14;1.20;99.90
23591;DHT22;11973;52.098;7.582;2023-12-04T20:00:40;1.20;99.90
23591;DHT22;11973;52.098;7.582;2023-12-04T20:03:06;1.20;99.90
23591;DHT22;11973;52.098;7.582;2023-12-04T20:05:33;1.20;99.90
23591;DHT22;11973;52.098;7.582;2023-12-04T20:07:59;1.20;99.90
23591;DHT22;11973;52.098;7.582;2023-12-04T20:10:25;1.20;99.90
23591;DHT22;11973;52.098;7.582;2023-12-04T20:12:51;1.20;99.90
23591;DHT22;11973;52.098;7.582;2023-12-04T20:15:17;1.20;99.90
23591;DHT22;11973;52.098;7.582;2023-12-04T20:17:43;1.20;99.90
23591;DHT22;11973;52.098;7.582;2023-12-04T20:20:09;1.20;99.90
23591;DHT22;11973;52.098;7.582;2023-12-04T20:22:35;1.20;99.90
23591;DHT22;11973;52.098;7.582;2023-12-04T20:25:01;1.20;99.90
23591;DHT22;11973;52.098;7.582;2023-12-04T20:27:28;1.20;99.90
23591;DHT22;11973;52.098;7.582;2023-12-04T20:29:53;1.30;99.90
23591;DHT22;11973;52.098;7.582;2023-12-04T20:32:23;1.20;99.90